Time;durP1;ratioP1;P1;durP2;ratioP2;P2;SDS_P1;SDS_P2;PMS_P1;PMS_P2;Temp;Humidity;BMP_temperature;BMP_pressure;BME280_temperature;BME280_humidity;BME280_pressure;Samples;Min_cycle;Max_cycle;Signal;HPM_P1;HPM_P2
2023/04/14 00:01:17;;;;;;;5.45;2.55;;;8.20;98.90;;;;;;5074313;28;20189;-67
2023/04/14 00:03:43;;;;;;;6.50;2.40;;;8.20;99.00;;;;;;5075098;28;20238;-69
2023/04/14 00:06:08;;;;;;;5.43;2.33;;;8.20;99.00;;;;;;5074435;28;20029;-69
2023/04/14 00:08:34;;;;;;;5.05;2.50;;;8.00;98.90;;;;;;5074017;28;20497;-68
2023/04/14 00:11:00;;;;;;;7.72;2.78;;;8.10;99.10;;;;;;5074034;28;20473;-69
2023/04/14 00:13:26;;;;;;;6.25;2.50;;;8.00;99.00;;;;;;5074083;28;20036;-68
2023/04/14 00:15:52;;;;;;;8.73;2.28;;;8.00;99.00;;;;;;5074775;28;20016;-70
2023/04/14 00:18:17;;;;;;;14.60;2.88;;;8.00;99.00;;;;;;5074029;28;20152;-68
2023/04/14 00:20:44;;;;;;;5.68;2.50;;;8.30;99.00;;;;;;5074140;28;20484;-69
2023/04/14 00:23:10;;;;;;;10.82;3.50;;;8.00;98.80;;;;;;5073858;28;20044;-69
2023/04/14 00:25:35;;;;;;;5.55;3.33;;;7.90;98.90;;;;;;5073795;28;20056;-69
2023/04/14 00:28:01;;;;;;;6.47;2.67;;;8.00;99.10;;;;;;5074295;28;20024;-67
2023/04/14 00:30:26;;;;;;;8.15;3.10;;;8.00;99.10;;;;;;5073629;28;20028;-68
2023/04/14 00:32:52;;;;;;;10.18;3.17;;;7.90;99.00;;;;;;5073928;28;20482;-69
2023/04/14 00:35:18;;;;;;;7.70;2.80;;;7.80;99.00;;;;;;5073940;28;20459;-71
2023/04/14 00:37:43;;;;;;;6.55;2.65;;;7.70;99.10;;;;;;5073826;28;20037;-69
2023/04/14 00:40:12;;;;;;;4.88;2.90;;;7.70;99.20;;;;;;5073790;28;20038;-69
2023/04/14 00:42:44;;;;;;;7.97;3.25;;;7.70;99.30;;;;;;5074065;28;20239;-69
2023/04/14 00:45:12;;;;;;;7.18;3.40;;;7.70;99.40;;;;;;5073697;28;20029;-71
2023/04/14 00:47:45;;;;;;;7.95;3.45;;;7.70;99.40;;;;;;5072416;28;20485;-68
2023/04/14 00:50:13;;;;;;;11.70;3.30;;;7.60;99.30;;;;;;5073493;28;20044;-69
2023/04/14 00:52:40;;;;;;;7.90;3.70;;;7.60;99.30;;;;;;5073418;28;20037;-68
2023/04/14 00:55:06;;;;;;;8.07;3.90;;;7.60;99.30;;;;;;5072824;28;20032;-69
2023/04/14 00:57:32;;;;;;;11.32;3.58;;;7.60;99.20;;;;;;5073418;28;20033;-69
2023/04/14 00:59:59;;;;;;;9.85;3.85;;;7.50;99.30;;;;;;5073268;28;20051;-69
2023/04/14 01:02:25;;;;;;;9.37;3.43;;;7.70;99.50;;;;;;5072601;28;20425;-70
2023/04/14 01:04:51;;;;;;;7.53;3.30;;;7.50;99.40;;;;;;5073306;28;20033;-69
2023/04/14 01:07:18;;;;;;;7.18;3.30;;;7.40;99.50;;;;;;5073657;28;20115;-68
2023/04/14 01:09:44;;;;;;;8.43;4.35;;;7.50;99.30;;;;;;5073758;28;20021;-70
2023/04/14 01:12:35;;;;;;;9.68;3.50;;;7.40;99.40;;;;;;5073379;28;20033;-71
2023/04/14 01:15:10;;;;;;;11.23;3.78;;;7.40;99.50;;;;;;5072225;28;20025;-70
2023/04/14 01:17:42;;;;;;;7.65;3.50;;;7.30;99.50;;;;;;5071731;28;20036;-70
2023/04/14 01:20:12;;;;;;;7.95;4.18;;;7.30;99.60;;;;;;5073071;28;20025;-70
2023/04/14 01:22:46;;;;;;;8.38;3.63;;;7.30;99.60;;;;;;5073120;28;20040;-70
2023/04/14 01:25:57;;;;;;;10.07;3.53;;;7.20;99.50;;;;;;5073064;28;20129;-69
2023/04/14 01:28:59;;;;;;;6.78;4.07;;;7.20;99.70;;;;;;5072865;28;20020;-70
2023/04/14 01:31:46;;;;;;;8.50;3.50;;;7.00;99.70;;;;;;5071393;28;20051;-70
2023/04/14 01:34:35;;;;;;;9.50;3.92;;;7.00;99.80;;;;;;5071535;28;20021;-69
2023/04/14 01:37:13;;;;;;;7.03;3.90;;;7.10;99.80;;;;;;5091847;28;20098;-70
2023/04/14 01:39:44;;;;;;;8.50;3.90;;;7.10;99.80;;;;;;5093635;28;20424;-69
2023/04/14 01:42:16;;;;;;;10.57;4.32;;;7.10;99.90;;;;;;5092673;28;20032;-71
2023/04/14 01:44:43;;;;;;;9.05;4.15;;;7.00;99.90;;;;;;5092434;28;20036;-71
2023/04/14 01:47:14;;;;;;;7.63;4.05;;;7.00;99.90;;;;;;5091654;28;20117;-70
2023/04/14 01:49:40;;;;;;;12.23;4.32;;;7.10;99.90;;;;;;5091238;28;20499;-69
2023/04/14 01:52:09;;;;;;;6.90;4.25;;;6.90;99.90;;;;;;5093112;28;20032;-69
2023/04/14 01:54:38;;;;;;;12.55;4.13;;;7.00;99.90;;;;;;5092620;28;20133;-70
2023/04/14 01:57:06;;;;;;;11.98;5.03;;;7.00;99.90;;;;;;5091238;28;20065;-70
2023/04/14 01:59:33;;;;;;;7.22;4.43;;;6.90;99.80;;;;;;5092665;28;20492;-68
2023/04/14 02:02:02;;;;;;;7.80;3.92;;;6.90;99.90;;;;;;5092358;28;20094;-69
2023/04/14 02:04:29;;;;;;;11.40;4.28;;;6.80;99.90;;;;;;5092284;28;20142;-70
2023/04/14 02:06:59;;;;;;;11.43;3.75;;;6.80;99.90;;;;;;5092659;28;20024;-70
2023/04/14 02:09:26;;;;;;;6.82;3.95;;;6.80;99.90;;;;;;5091140;28;20028;-69
2023/04/14 02:11:53;;;;;;;15.20;7.40;;;6.80;99.90;;;;;;5091962;28;20020;-70
2023/04/14 02:14:21;;;;;;;9.77;4.72;;;6.80;99.90;;;;;;5090974;28;20032;-69
2023/04/14 02:16:49;;;;;;;11.55;4.45;;;6.70;99.90;;;;;;5092305;28;20070;-70
2023/04/14 02:19:20;;;;;;;11.55;5.22;;;6.70;99.90;;;;;;5091989;28;20501;-70
2023/04/14 02:21:51;;;;;;;12.13;5.00;;;6.70;99.90;;;;;;5092296;28;20024;-69
2023/04/14 02:24:17;;;;;;;11.70;4.55;;;6.70;99.90;;;;;;5091826;28;20028;-68
2023/04/14 02:27:12;;;;;;;13.07;4.70;;;6.70;99.90;;;;;;5091945;28;20024;-69
2023/04/14 02:29:41;;;;;;;12.38;4.57;;;6.60;99.90;;;;;;5091841;28;20074;-70
2023/04/14 02:32:16;;;;;;;12.10;4.72;;;6.60;99.90;;;;;;5091950;28;20426;-70
2023/04/14 02:34:52;;;;;;;8.93;4.88;;;6.60;99.90;;;;;;5091781;28;20028;-69
2023/04/14 02:37:23;;;;;;;11.40;4.90;;;6.60;99.90;;;;;;5091640;28;20073;-70
2023/04/14 02:39:57;;;;;;;15.25;4.90;;;6.60;99.90;;;;;;5092396;28;20020;-70
2023/04/14 02:42:27;;;;;;;13.73;6.18;;;6.50;99.90;;;;;;5090885;28;20070;-70
2023/04/14 02:45:15;;;;;;;13.10;5.85;;;6.50;99.90;;;;;;5091523;28;20048;-69
2023/04/14 02:47:46;;;;;;;14.60;5.32;;;6.50;99.90;;;;;;5091491;28;20319;-69
2023/04/14 02:50:14;;;;;;;7.80;5.18;;;6.50;99.90;;;;;;5091555;28;20025;-69
2023/04/14 02:52:42;;;;;;;12.05;5.45;;;6.40;99.90;;;;;;5091796;28;20029;-69
2023/04/14 02:55:08;;;;;;;;;;;6.50;99.90;;;;;;5091539;28;20016;-67
2023/04/14 02:57:34;;;;;;;10.88;5.72;;;6.30;99.90;;;;;;5091926;28;19911;-71
2023/04/14 03:00:02;;;;;;;11.95;5.32;;;6.30;99.90;;;;;;5091157;28;20485;-71
2023/04/14 03:02:29;;;;;;;12.77;5.13;;;6.30;99.90;;;;;;5091166;28;20319;-70
2023/04/14 03:04:55;;;;;;;12.63;5.60;;;6.20;99.90;;;;;;5090087;28;20047;-70
2023/04/14 03:07:21;;;;;;;11.20;5.47;;;6.20;99.90;;;;;;5090999;28;20028;-70
2023/04/14 03:09:51;;;;;;;9.25;5.07;;;6.20;99.90;;;;;;5091625;28;20020;-70
2023/04/14 03:12:20;;;;;;;13.02;5.55;;;6.10;99.90;;;;;;5091195;28;20103;-69
2023/04/14 03:14:47;;;;;;;15.68;6.07;;;6.20;99.90;;;;;;5091047;28;20089;-70
2023/04/14 03:17:14;;;;;;;12.30;5.40;;;6.20;99.90;;;;;;5090999;28;20032;-69
2023/04/14 03:19:41;;;;;;;11.38;5.15;;;6.20;99.90;;;;;;5091266;28;20115;-70
2023/04/14 03:22:11;;;;;;;9.60;5.53;;;6.20;99.90;;;;;;5091281;28;20078;-70
2023/04/14 03:24:39;;;;;;;13.45;5.18;;;6.40;99.70;;;;;;5090999;28;20112;-69
2023/04/14 03:27:10;;;;;;;12.73;4.75;;;6.60;99.90;;;;;;5089960;28;20043;-69
2023/04/14 03:29:46;;;;;;;9.30;4.78;;;6.40;99.90;;;;;;5090932;28;20389;-69
2023/04/14 03:32:13;;;;;;;11.43;5.80;;;6.40;99.80;;;;;;5090772;28;20032;-69
2023/04/14 03:34:45;;;;;;;12.77;5.97;;;6.40;99.80;;;;;;5090561;28;20036;-70
2023/04/14 03:37:15;;;;;;;9.80;5.60;;;6.30;99.80;;;;;;5089738;28;20472;-70
2023/04/14 03:39:42;;;;;;;9.82;5.38;;;6.40;99.90;;;;;;5091323;28;20051;-69
2023/04/14 03:42:10;;;;;;;14.60;5.43;;;6.30;99.80;;;;;;5090978;28;20357;-69
2023/04/14 03:44:38;;;;;;;14.15;5.50;;;6.30;99.90;;;;;;5090885;28;20036;-70
2023/04/14 03:47:06;;;;;;;11.38;5.55;;;6.30;99.90;;;;;;5091001;28;20031;-69
2023/04/14 03:49:36;;;;;;;;;;;6.30;99.90;;;;;;5091197;28;20051;-68
2023/04/14 03:52:07;;;;;;;11.68;5.15;;;6.50;99.40;;;;;;5091084;28;19904;-71
2023/04/14 03:54:36;;;;;;;8.10;5.78;;;6.60;99.20;;;;;;5090905;28;20047;-70
2023/04/14 03:57:07;;;;;;;8.77;5.47;;;6.50;99.40;;;;;;5089510;28;20461;-69
2023/04/14 03:59:35;;;;;;;9.93;5.72;;;6.40;99.70;;;;;;5089426;28;20071;-69
2023/04/14 04:02:01;;;;;;;;;;;6.40;99.80;;;;;;5090886;28;20050;-67
2023/04/14 04:04:29;;;;;;;11.25;6.03;;;6.50;99.40;;;;;;5090292;28;19912;-70
2023/04/14 04:06:55;;;;;;;;;;;6.60;99.00;;;;;;5090126;28;20032;-68
2023/04/14 04:09:23;;;;;;;11.40;6.25;;;6.60;99.40;;;;;;5090344;28;19919;-69
2023/04/14 04:11:51;;;;;;;10.85;5.22;;;6.40;99.40;;;;;;5090408;28;20396;-69
2023/04/14 04:14:20;;;;;;;10.30;5.88;;;6.40;99.50;;;;;;5089405;28;20534;-71
2023/04/14 04:16:50;;;;;;;11.43;7.07;;;6.30;99.80;;;;;;5090485;28;20032;-70
2023/04/14 04:19:20;;;;;;;10.25;5.85;;;6.30;99.90;;;;;;5090327;28;20024;-69
2023/04/14 04:21:48;;;;;;;11.38;6.82;;;6.20;99.90;;;;;;5090604;28;20028;-69
2023/04/14 04:24:16;;;;;;;14.98;6.85;;;6.20;99.90;;;;;;5090245;28;20028;-69
2023/04/14 04:26:42;;;;;;;;;;;6.20;99.90;;;;;;5090733;28;20031;-67
2023/04/14 04:29:09;;;;;;;14.60;6.47;;;6.30;99.90;;;;;;5090250;28;19981;-70
2023/04/14 04:31:35;;;;;;;12.13;6.57;;;6.30;99.90;;;;;;5090184;28;20036;-69
2023/04/14 04:34:04;;;;;;;14.63;6.03;;;6.20;99.90;;;;;;5090512;28;20075;-69
2023/04/14 04:36:31;;;;;;;14.07;6.05;;;6.30;99.90;;;;;;5090496;28;20032;-69
2023/04/14 04:38:57;;;;;;;15.70;8.52;;;6.20;99.90;;;;;;5093908;28;20024;-69
2023/04/14 04:41:27;;;;;;;14.93;6.10;;;6.10;99.90;;;;;;5093556;28;20028;-69
2023/04/14 04:43:53;;;;;;;13.82;7.20;;;6.20;99.90;;;;;;5093646;28;20085;-69
2023/04/14 04:46:37;;;;;;;13.18;6.72;;;6.30;99.80;;;;;;5093721;28;20051;-68
2023/04/14 04:49:03;;;;;;;13.45;6.82;;;6.30;99.80;;;;;;5094367;28;20032;-70
2023/04/14 04:51:30;;;;;;;12.35;6.60;;;6.20;99.90;;;;;;5093591;28;20028;-70
2023/04/14 04:53:55;;;;;;;15.32;6.75;;;6.20;99.90;;;;;;5093446;28;20123;-69
2023/04/14 04:56:21;;;;;;;16.25;7.00;;;6.20;99.80;;;;;;5093418;28;20501;-71
2023/04/14 04:58:47;;;;;;;12.93;6.28;;;6.20;99.90;;;;;;5093403;28;20024;-68
2023/04/14 05:01:14;;;;;;;16.88;7.72;;;6.20;99.90;;;;;;5093659;28;20353;-69
2023/04/14 05:03:40;;;;;;;11.90;6.78;;;6.10;99.90;;;;;;5092802;28;20031;-68
2023/04/14 05:06:06;;;;;;;16.40;8.07;;;6.10;99.90;;;;;;5093111;28;20028;-69
2023/04/14 05:08:31;;;;;;;15.05;6.80;;;6.20;99.90;;;;;;5092319;28;20038;-68
2023/04/14 05:10:57;;;;;;;14.80;7.03;;;6.40;99.70;;;;;;5093221;28;20020;-69
2023/04/14 05:13:23;;;;;;;12.00;6.82;;;6.40;99.60;;;;;;5093225;28;20176;-68
2023/04/14 05:15:49;;;;;;;16.13;7.50;;;6.30;99.70;;;;;;5093567;28;20083;-70
2023/04/14 05:18:15;;;;;;;19.48;7.32;;;6.20;99.80;;;;;;5095611;28;20032;-69
2023/04/14 05:20:40;;;;;;;14.52;6.50;;;6.20;99.90;;;;;;5091933;28;20074;-69
2023/04/14 05:23:06;;;;;;;12.52;6.50;;;6.20;99.90;;;;;;5092786;28;20028;-69
2023/04/14 05:25:31;;;;;;;16.17;7.30;;;6.20;99.90;;;;;;5093075;28;20157;-70
2023/04/14 05:27:57;;;;;;;18.95;7.28;;;6.30;99.90;;;;;;5093821;28;20031;-68
2023/04/14 05:30:23;;;;;;;21.00;7.47;;;6.30;99.90;;;;;;5092560;28;20555;-70
2023/04/14 05:32:49;;;;;;;15.48;7.00;;;6.40;99.90;;;;;;5092812;28;20032;-70
2023/04/14 05:35:15;;;;;;;15.52;6.88;;;6.40;99.90;;;;;;5092849;28;20036;-70
2023/04/14 05:37:41;;;;;;;14.65;7.68;;;6.50;99.90;;;;;;5092832;28;20040;-72
2023/04/14 05:40:07;;;;;;;17.35;7.78;;;6.60;99.80;;;;;;5091892;28;20035;-70
2023/04/14 05:42:33;;;;;;;16.13;7.10;;;6.60;99.80;;;;;;5093113;28;20024;-69
2023/04/14 05:44:59;;;;;;;20.40;7.45;;;6.60;99.70;;;;;;5092797;28;20389;-69
2023/04/14 05:47:24;;;;;;;23.40;7.45;;;6.60;99.80;;;;;;5092217;28;20064;-68
2023/04/14 05:49:50;;;;;;;12.93;7.45;;;6.70;99.90;;;;;;5092358;28;20450;-70
2023/04/14 05:52:15;;;;;;;18.05;8.00;;;6.80;99.90;;;;;;5092754;28;20058;-70
2023/04/14 05:54:41;;;;;;;16.60;7.80;;;6.90;99.90;;;;;;5092841;28;20385;-69
2023/04/14 05:57:07;;;;;;;26.50;8.27;;;6.90;99.80;;;;;;5092510;28;20051;-69
2023/04/14 05:59:32;;;;;;;17.00;8.00;;;7.10;99.50;;;;;;5092362;28;20028;-67
2023/04/14 06:02:01;;;;;;;15.70;7.90;;;7.20;99.30;;;;;;5092263;28;20101;-69
2023/04/14 06:04:26;;;;;;;17.40;7.93;;;7.30;99.40;;;;;;5092237;28;20051;-68
2023/04/14 06:06:52;;;;;;;17.95;8.38;;;7.40;99.40;;;;;;5092627;28;20349;-71
2023/04/14 06:09:17;;;;;;;21.33;8.48;;;7.50;99.80;;;;;;5092093;28;20074;-70
2023/04/14 06:11:43;;;;;;;18.60;8.30;;;7.10;99.90;;;;;;5092280;28;20111;-70
2023/04/14 06:14:09;;;;;;;20.13;8.68;;;7.30;99.90;;;;;;5092433;28;20024;-71
2023/04/14 06:16:34;;;;;;;34.17;9.60;;;7.40;99.90;;;;;;5090839;28;20032;-73
2023/04/14 06:19:00;;;;;;;28.25;9.02;;;7.40;99.90;;;;;;5091630;28;20119;-71
2023/04/14 06:21:26;;;;;;;27.88;8.65;;;7.60;99.80;;;;;;5091878;28;20429;-71
2023/04/14 06:23:51;;;;;;;20.33;8.20;;;7.70;99.60;;;;;;5090559;28;20411;-68
2023/04/14 06:26:17;;;;;;;22.88;8.80;;;7.80;99.30;;;;;;5091889;28;20362;-70
2023/04/14 06:28:43;;;;;;;21.50;9.35;;;8.00;99.30;;;;;;5090608;28;20357;-77
2023/04/14 06:31:09;;;;;;;28.77;9.20;;;8.00;99.30;;;;;;5090624;28;20421;-69
2023/04/14 06:33:34;;;;;;;22.48;8.55;;;8.10;99.70;;;;;;5091933;28;20020;-84
2023/04/14 06:36:01;;;;;;;29.15;10.07;;;8.10;99.50;;;;;;5091568;28;20044;-70
2023/04/14 06:38:27;;;;;;;21.08;9.55;;;8.20;99.60;;;;;;5091725;28;20032;-71
2023/04/14 06:40:52;;;;;;;26.75;10.02;;;8.30;99.40;;;;;;5091879;28;20032;-72
2023/04/14 06:43:18;;;;;;;19.85;9.45;;;8.40;99.40;;;;;;5091611;28;20123;-72
2023/04/14 06:45:44;;;;;;;29.80;10.25;;;8.60;99.40;;;;;;5091724;28;20028;-72
2023/04/14 06:48:11;;;;;;;29.48;9.80;;;8.70;99.30;;;;;;5090759;28;20024;-70
2023/04/14 06:50:37;;;;;;;22.43;9.27;;;8.80;99.40;;;;;;5092286;28;20085;-72
2023/04/14 06:53:04;;;;;;;22.40;9.25;;;8.80;99.60;;;;;;5091037;28;20429;-71
2023/04/14 06:55:30;;;;;;;23.33;9.50;;;9.00;99.80;;;;;;5091360;28;20028;-71
2023/04/14 06:57:56;;;;;;;29.27;9.60;;;9.10;99.60;;;;;;5091572;28;20353;-70
2023/04/14 07:00:22;;;;;;;22.45;8.82;;;9.20;99.60;;;;;;5090500;28;20035;-71
2023/04/14 07:02:47;;;;;;;33.97;8.57;;;9.30;99.60;;;;;;5091015;28;20040;-71
2023/04/14 07:05:13;;;;;;;17.42;8.35;;;9.50;99.70;;;;;;5091489;28;20040;-72
2023/04/14 07:07:39;;;;;;;18.15;8.52;;;9.60;99.60;;;;;;5091010;28;20120;-72
2023/04/14 07:10:05;;;;;;;12.32;7.78;;;9.70;99.70;;;;;;5090227;28;20137;-72
2023/04/14 07:12:32;;;;;;;13.63;7.38;;;9.90;99.50;;;;;;5091487;28;20354;-70
2023/04/14 07:14:58;;;;;;;12.40;8.40;;;10.00;98.90;;;;;;5090784;28;20463;-71
2023/04/14 07:17:23;;;;;;;14.25;7.07;;;10.20;98.80;;;;;;5090692;28;20158;-72
2023/04/14 07:19:49;;;;;;;17.50;8.43;;;10.30;98.70;;;;;;5090820;28;20058;-71
2023/04/14 07:22:15;;;;;;;17.48;7.55;;;10.40;98.60;;;;;;5089796;28;20115;-72
2023/04/14 07:24:41;;;;;;;19.20;7.25;;;10.60;98.50;;;;;;5091409;28;20016;-73
2023/04/14 07:27:13;;;;;;;12.80;6.72;;;10.70;98.20;;;;;;5090585;28;20028;-71
2023/04/14 07:29:40;;;;;;;11.55;5.63;;;10.80;98.00;;;;;;5089402;28;20254;-71
2023/04/14 07:32:07;;;;;;;9.93;5.65;;;10.90;97.60;;;;;;5090611;28;20044;-73
2023/04/14 07:34:33;;;;;;;9.57;5.38;;;11.00;97.40;;;;;;5089516;28;20036;-71
2023/04/14 07:36:59;;;;;;;14.38;5.72;;;11.10;97.40;;;;;;5090782;28;20435;-69
2023/04/14 07:39:25;;;;;;;11.90;5.63;;;11.20;97.30;;;;;;5089488;28;20024;-69
2023/04/14 07:41:51;;;;;;;10.85;4.95;;;11.40;97.20;;;;;;5089925;28;20036;-69
2023/04/14 07:44:17;;;;;;;10.75;4.78;;;11.50;96.90;;;;;;5089562;28;20365;-68
2023/04/14 07:46:43;;;;;;;12.15;4.25;;;11.60;96.50;;;;;;5089951;28;20469;-70
2023/04/14 07:49:09;;;;;;;8.98;4.03;;;11.70;95.90;;;;;;5089005;28;20115;-71
2023/04/14 07:51:34;;;;;;;12.05;4.75;;;11.80;95.70;;;;;;5091577;28;20046;-68
2023/04/14 07:54:00;;;;;;;14.85;7.18;;;11.90;95.30;;;;;;5072334;28;20397;-70
2023/04/14 07:56:26;;;;;;;7.55;3.53;;;12.00;95.30;;;;;;5070914;28;20496;-69
2023/04/14 07:58:51;;;;;;;9.57;3.53;;;12.10;95.00;;;;;;5071068;28;20051;-71
2023/04/14 08:01:17;;;;;;;7.43;3.25;;;12.10;94.80;;;;;;5069475;28;20024;-71
2023/04/14 08:03:43;;;;;;;15.35;3.50;;;12.20;94.60;;;;;;5069482;28;20067;-70
2023/04/14 08:06:08;;;;;;;9.02;3.10;;;12.40;94.40;;;;;;5069809;28;20029;-69
2023/04/14 08:08:34;;;;;;;6.40;2.63;;;12.60;94.50;;;;;;5069901;28;20040;-68
2023/04/14 08:11:00;;;;;;;12.05;4.47;;;13.30;94.10;;;;;;5070179;28;20029;-70
2023/04/14 08:13:26;;;;;;;11.63;4.88;;;14.40;93.40;;;;;;5073127;28;20129;-69
2023/04/14 08:15:51;;;;;;;10.30;3.50;;;15.70;92.90;;;;;;5074003;28;20406;-69
2023/04/14 08:18:17;;;;;;;8.20;3.72;;;16.90;91.10;;;;;;5074457;28;20373;-71
2023/04/14 08:20:43;;;;;;;11.77;4.03;;;18.00;88.80;;;;;;5073551;28;20020;-71
2023/04/14 08:23:10;;;;;;;8.38;2.35;;;18.70;86.30;;;;;;5074887;28;20048;-70
2023/04/14 08:25:36;;;;;;;6.88;2.97;;;19.50;83.50;;;;;;5073785;28;20044;-71
2023/04/14 08:28:01;;;;;;;5.45;1.83;;;20.10;81.60;;;;;;5074019;28;20028;-68
2023/04/14 08:30:27;;;;;;;8.60;2.28;;;20.60;79.10;;;;;;5074448;28;20458;-69
2023/04/14 08:32:53;;;;;;;5.38;1.52;;;21.00;77.50;;;;;;5074472;28;20138;-70
2023/04/14 08:35:20;;;;;;;3.67;1.38;;;21.60;73.70;;;;;;5073642;28;20040;-70
2023/04/14 08:37:46;;;;;;;6.65;1.45;;;22.40;72.00;;;;;;5074380;28;20037;-70
2023/04/14 08:40:14;;;;;;;3.65;1.85;;;23.30;69.90;;;;;;5073929;28;20048;-70
2023/04/14 08:42:40;;;;;;;4.82;1.80;;;23.60;69.00;;;;;;5073941;28;20024;-70
2023/04/14 08:45:06;;;;;;;5.90;2.25;;;23.70;66.20;;;;;;5073412;28;20043;-70
2023/04/14 08:47:34;;;;;;;3.70;1.80;;;23.70;64.90;;;;;;5072293;28;20501;-72
2023/04/14 08:50:06;;;;;;;16.92;8.60;;;24.00;63.20;;;;;;5072103;28;20031;-71
2023/04/14 08:52:34;;;;;;;6.40;2.65;;;24.30;64.60;;;;;;5073067;28;20028;-72
2023/04/14 08:55:01;;;;;;;6.63;1.92;;;24.50;63.20;;;;;;5073502;28;20047;-71
2023/04/14 08:57:30;;;;;;;8.05;1.83;;;25.00;61.30;;;;;;5072127;28;20090;-71
2023/04/14 08:59:56;;;;;;;6.72;2.17;;;25.30;60.10;;;;;;5073054;28;20032;-71
2023/04/14 09:02:22;;;;;;;8.23;2.03;;;25.50;59.60;;;;;;5072031;28;20374;-71
2023/04/14 09:04:48;;;;;;;5.95;1.80;;;25.60;58.60;;;;;;5073406;28;20059;-74
2023/04/14 09:07:15;;;;;;;6.65;1.83;;;25.80;58.30;;;;;;5072290;28;20381;-73
2023/04/14 09:09:44;;;;;;;8.07;2.63;;;26.10;57.20;;;;;;5073920;28;20048;-72
2023/04/14 09:12:12;;;;;;;5.72;2.22;;;26.40;55.70;;;;;;5073494;28;20033;-74
2023/04/14 09:14:39;;;;;;;5.32;2.50;;;26.80;55.70;;;;;;5072548;28;20366;-72
2023/04/14 09:17:05;;;;;;;3.33;1.58;;;27.00;54.30;;;;;;5073703;28;20036;-71
2023/04/14 09:19:33;;;;;;;4.35;1.80;;;27.20;52.90;;;;;;5072277;28;20473;-73
2023/04/14 09:21:58;;;;;;;;;;;27.50;52.90;;;;;;5072516;28;20124;-71
2023/04/14 09:24:32;;;;;;;5.63;1.60;;;28.00;49.40;;;;;;5073025;28;20007;-71
2023/04/14 09:27:02;;;;;;;5.05;2.42;;;28.30;50.30;;;;;;5072984;28;20124;-71
2023/04/14 09:29:28;;;;;;;6.10;3.05;;;28.60;48.80;;;;;;5073281;28;20067;-71
2023/04/14 09:31:54;;;;;;;4.57;2.28;;;29.00;48.60;;;;;;5071825;28;20060;-72
2023/04/14 09:34:20;;;;;;;3.65;1.52;;;29.00;47.00;;;;;;5072085;28;20063;-71
2023/04/14 09:37:04;;;;;;;6.95;2.28;;;29.30;46.80;;;;;;5073969;28;20017;-72
2023/04/14 09:39:31;;;;;;;4.95;2.28;;;29.30;46.40;;;;;;5073414;28;20708;-71
2023/04/14 09:41:58;;;;;;;3.95;1.45;;;29.00;46.90;;;;;;5071873;28;20032;-74
2023/04/14 09:44:24;;;;;;;4.72;1.83;;;28.50;46.00;;;;;;5073480;28;20471;-71
2023/04/14 09:46:57;;;;;;;5.07;1.88;;;28.90;46.50;;;;;;5073074;28;20056;-73
2023/04/14 09:49:23;;;;;;;4.30;1.35;;;28.50;45.10;;;;;;5072796;28;20043;-71
2023/04/14 09:51:53;;;;;;;4.72;1.40;;;28.00;46.10;;;;;;5073334;28;20474;-75
2023/04/14 09:54:25;;;;;;;6.88;2.13;;;27.60;44.80;;;;;;5072209;28;20036;-73
2023/04/14 09:56:52;;;;;;;6.35;1.55;;;28.10;46.30;;;;;;5072514;28;20120;-70
2023/04/14 09:59:36;;;;;;;4.55;1.50;;;28.50;45.30;;;;;;5072632;28;20043;-74
2023/04/14 10:02:08;;;;;;;4.10;1.73;;;28.50;44.40;;;;;;5071870;28;20046;-71
2023/04/14 10:04:34;;;;;;;3.95;1.45;;;28.00;44.40;;;;;;5072027;28;20044;-74
2023/04/14 10:07:00;;;;;;;6.43;1.70;;;27.10;45.10;;;;;;5072814;28;20025;-75
2023/04/14 10:09:27;;;;;;;5.13;1.92;;;26.30;46.00;;;;;;5072250;28;20082;-76
2023/04/14 10:12:13;;;;;;;4.40;1.73;;;25.20;47.00;;;;;;5072037;28;20028;-74
2023/04/14 10:14:40;;;;;;;4.07;1.70;;;24.90;48.50;;;;;;5070675;28;20086;-74
2023/04/14 10:17:06;;;;;;;6.00;1.50;;;24.70;47.70;;;;;;5071863;28;20032;-73
2023/04/14 10:19:33;;;;;;;1.83;1.30;;;25.10;48.30;;;;;;5071599;28;20037;-72
2023/04/14 10:22:00;;;;;;;3.13;1.60;;;24.70;47.70;;;;;;5071191;28;20020;-72
2023/04/14 10:24:26;;;;;;;5.82;1.58;;;24.00;48.20;;;;;;5071398;28;20079;-71
2023/04/14 10:26:52;;;;;;;8.88;1.90;;;23.30;49.30;;;;;;5070520;28;20470;-73
2023/04/14 10:29:19;;;;;;;3.85;1.40;;;22.90;50.20;;;;;;5070888;28;20495;-74
2023/04/14 10:31:49;;;;;;;2.85;1.20;;;22.60;49.00;;;;;;5071729;28;20056;-75
2023/04/14 10:34:15;;;;;;;5.70;1.50;;;21.80;49.80;;;;;;5071023;28;20032;-74
2023/04/14 10:36:42;;;;;;;4.78;1.42;;;21.60;50.40;;;;;;5072091;28;20063;-75
2023/04/14 10:39:10;;;;;;;5.00;1.30;;;21.30;50.90;;;;;;5071265;28;20028;-74
2023/04/14 10:41:46;;;;;;;;;;;21.00;51.20;;;;;;5071777;28;20048;-74
2023/04/14 10:44:24;;;;;;;3.38;1.30;;;20.80;51.50;;;;;;5071236;28;19908;-72
2023/04/14 10:46:51;;;;;;;;;;;20.50;52.50;;;;;;5071690;28;20029;-72
2023/04/14 10:49:17;;;;;;;4.15;1.50;;;20.20;52.50;;;;;;5071651;28;20281;-76
2023/04/14 10:51:45;;;;;;;4.32;1.40;;;20.20;52.30;;;;;;5072096;28;20029;-76
2023/04/14 10:54:17;;;;;;;5.90;1.63;;;19.90;52.60;;;;;;5071120;28;20119;-71
2023/04/14 10:57:14;;;;;;;9.20;2.35;;;19.50;53.20;;;;;;5070852;28;20028;-72
2023/04/14 10:59:44;;;;;;;5.47;2.00;;;19.30;53.90;;;;;;5070806;28;20037;-72
2023/04/14 11:02:22;;;;;;;4.50;2.10;;;19.00;54.40;;;;;;5070679;28;20033;-71
2023/04/14 11:05:04;;;;;;;5.40;1.95;;;18.90;54.80;;;;;;5071703;28;20067;-70
2023/04/14 11:07:36;;;;;;;5.43;2.05;;;18.70;55.50;;;;;;5071500;28;20028;-70
2023/04/14 11:10:21;;;;;;;9.05;1.92;;;18.80;55.70;;;;;;5071928;28;20020;-72
2023/04/14 11:13:01;;;;;;;4.30;1.17;;;18.80;55.30;;;;;;5069814;28;20051;-71
2023/04/14 11:15:46;;;;;;;5.53;1.90;;;18.70;55.30;;;;;;5070554;28;20490;-70
2023/04/14 11:18:37;;;;;;;7.30;3.58;;;18.80;56.00;;;;;;5071040;28;20025;-70
2023/04/14 11:21:14;;;;;;;5.70;1.92;;;19.00;56.50;;;;;;5062134;28;20052;-70
2023/04/14 11:23:41;;;;;;;4.30;1.98;;;18.90;56.00;;;;;;5071415;28;20051;-69
2023/04/14 11:26:12;;;;;;;7.82;2.30;;;18.80;56.00;;;;;;5071047;28;20085;-68
2023/04/14 11:28:39;;;;;;;6.70;2.30;;;18.80;56.10;;;;;;5071628;28;20033;-73
2023/04/14 11:31:07;;;;;;;3.25;1.65;;;18.50;56.20;;;;;;5070141;28;20419;-70
2023/04/14 11:33:38;;;;;;;5.22;2.03;;;18.40;56.20;;;;;;5069734;28;20024;-69
2023/04/14 11:36:06;;;;;;;3.25;2.30;;;18.30;56.60;;;;;;5070190;28;20101;-68
2023/04/14 11:38:39;;;;;;;6.72;2.20;;;18.10;56.90;;;;;;5070770;28;20032;-68
2023/04/14 11:41:05;;;;;;;4.20;1.70;;;18.10;57.00;;;;;;5069616;28;20481;-69
2023/04/14 11:43:31;;;;;;;7.07;2.00;;;18.10;57.80;;;;;;5069549;28;20374;-70
2023/04/14 11:45:59;;;;;;;4.13;2.00;;;18.00;57.20;;;;;;5073649;28;20035;-69
2023/04/14 11:48:27;;;;;;;4.35;1.67;;;18.10;57.30;;;;;;5077721;28;20052;-70
2023/04/14 11:50:55;;;;;;;2.95;1.50;;;18.10;57.00;;;;;;5077694;28;20459;-70
2023/04/14 11:53:20;;;;;;;3.58;1.77;;;18.10;56.50;;;;;;5076731;28;20516;-69
2023/04/14 11:55:47;;;;;;;3.58;1.67;;;18.10;56.40;;;;;;5077634;28;20152;-69
2023/04/14 11:58:14;;;;;;;5.63;2.13;;;18.20;56.50;;;;;;5077281;28;20024;-72
2023/04/14 12:00:41;;;;;;;4.63;1.70;;;18.20;56.70;;;;;;5078263;28;20510;-71
2023/04/14 12:03:07;;;;;;;12.98;7.32;;;18.20;56.50;;;;;;5077117;28;20385;-70
2023/04/14 12:05:34;;;;;;;4.28;2.20;;;18.30;57.00;;;;;;5077192;28;20025;-71
2023/04/14 12:08:02;;;;;;;4.53;1.20;;;18.60;57.10;;;;;;5076131;28;20033;-70
2023/04/14 12:10:28;;;;;;;4.80;1.65;;;18.60;54.60;;;;;;5077490;28;20032;-71
2023/04/14 12:13:05;;;;;;;6.97;1.98;;;18.70;55.00;;;;;;5078146;28;20024;-69
2023/04/14 12:15:32;;;;;;;6.13;1.48;;;18.70;55.10;;;;;;5077368;28;20189;-70
2023/04/14 12:17:59;;;;;;;4.18;1.50;;;18.60;54.80;;;;;;5077644;28;20045;-71
2023/04/14 12:20:40;;;;;;;5.15;1.83;;;18.60;54.80;;;;;;5076124;28;20111;-70
2023/04/14 12:23:06;;;;;;;6.30;1.90;;;18.70;55.40;;;;;;5077035;28;20036;-70
2023/04/14 12:25:32;;;;;;;3.22;1.58;;;18.70;55.20;;;;;;5077037;28;20029;-69
2023/04/14 12:28:00;;;;;;;4.68;1.95;;;18.60;55.00;;;;;;5078136;28;20027;-71
2023/04/14 12:30:26;;;;;;;4.78;2.17;;;18.60;55.90;;;;;;5076835;28;20032;-70
2023/04/14 12:32:52;;;;;;;4.45;1.60;;;18.40;57.00;;;;;;5077434;28;20033;-70
2023/04/14 12:35:24;;;;;;;3.75;1.90;;;18.40;57.00;;;;;;5076670;28;20032;-71
2023/04/14 12:37:50;;;;;;;4.35;2.03;;;18.30;57.40;;;;;;5077152;28;20033;-71
2023/04/14 12:40:17;;;;;;;8.02;2.90;;;18.10;57.70;;;;;;5076676;28;20086;-70
2023/04/14 12:42:48;;;;;;;7.72;3.45;;;17.90;58.50;;;;;;5076327;28;20498;-71
2023/04/14 12:45:15;;;;;;;7.90;2.95;;;17.90;58.90;;;;;;5077039;28;20037;-71
2023/04/14 12:47:53;;;;;;;4.53;2.70;;;18.00;59.40;;;;;;5075779;28;20035;-70
2023/04/14 12:50:29;;;;;;;7.43;3.88;;;17.90;59.60;;;;;;5076938;28;20024;-71
2023/04/14 12:52:58;;;;;;;5.57;3.38;;;17.90;60.10;;;;;;5077125;28;20443;-72
2023/04/14 12:55:29;;;;;;;5.10;2.45;;;17.90;60.50;;;;;;5076486;28;20402;-69
2023/04/14 12:57:58;;;;;;;5.57;3.17;;;17.90;60.30;;;;;;5073970;28;20112;-69